Time;durP1;ratioP1;P1;durP2;ratioP2;P2;SDS_P1;SDS_P2;PMS_P1;PMS_P2;Temp;Humidity;BMP_temperature;BMP_pressure;BME280_temperature;BME280_humidity;BME280_pressure;Samples;Min_cycle;Max_cycle;Signal;HPM_P1;HPM_P2
2022/05/28 00:02:10;;;;;;;7.15;3.30;;;;;;;11.13;100.00;96241.53;5011923;28;24475;-74
2022/05/28 00:04:39;;;;;;;7.80;3.80;;;;;;;11.27;100.00;96251.94;5011520;28;24431;-75
2022/05/28 00:07:06;;;;;;;6.10;3.05;;;;;;;11.22;100.00;96251.34;5012047;28;24435;-75
2022/05/28 00:09:33;;;;;;;6.90;3.05;;;;;;;11.11;100.00;96254.56;5011895;28;24428;-75
2022/05/28 00:11:59;;;;;;;6.50;3.53;;;;;;;10.92;100.00;96253.94;5011777;28;24420;-75
2022/05/28 00:14:25;;;;;;;8.25;3.33;;;;;;;11.13;100.00;96267.47;5011573;28;24479;-75
2022/05/28 00:16:52;;;;;;;9.93;3.50;;;;;;;10.87;100.00;96261.16;5011527;28;24444;-75
2022/05/28 00:19:18;;;;;;;9.20;2.97;;;;;;;10.89;100.00;96256.69;5011475;28;24470;-75
2022/05/28 00:21:46;;;;;;;7.65;3.90;;;;;;;10.96;100.00;96245.06;5011553;28;24825;-75
2022/05/28 00:24:12;;;;;;;7.95;3.30;;;;;;;11.22;100.00;96243.59;5011363;28;24998;-75
2022/05/28 00:26:41;;;;;;;5.60;3.25;;;;;;;11.36;100.00;96243.63;5011755;28;24822;-75
2022/05/28 00:29:08;;;;;;;5.82;3.10;;;;;;;11.33;100.00;96243.78;5011788;28;24444;-75
2022/05/28 00:31:34;;;;;;;7.05;3.17;;;;;;;11.36;100.00;96250.56;5011677;28;24833;-75
2022/05/28 00:34:01;;;;;;;8.25;3.30;;;;;;;11.19;100.00;96241.16;5011665;28;24424;-75
2022/05/28 00:36:27;;;;;;;9.80;3.20;;;;;;;11.32;100.00;96238.72;5011458;28;24440;-75
2022/05/28 00:38:55;;;;;;;12.98;3.30;;;;;;;11.36;100.00;96241.03;5011531;28;24428;-75
2022/05/28 00:41:21;;;;;;;7.65;3.17;;;;;;;11.29;100.00;96246.66;5011513;28;24436;-75
2022/05/28 00:43:48;;;;;;;5.45;3.03;;;;;;;11.19;100.00;96235.16;5011308;28;24511;-75
2022/05/28 00:46:18;;;;;;;10.55;3.03;;;;;;;11.32;100.00;96242.13;5011070;28;24977;-75
2022/05/28 00:48:47;;;;;;;26.30;3.90;;;;;;;10.97;100.00;96245.91;5011672;28;24419;-75
2022/05/28 00:51:18;;;;;;;6.70;2.83;;;;;;;10.93;100.00;96253.00;5011075;28;24431;-75
2022/05/28 00:53:44;;;;;;;5.35;3.15;;;;;;;10.98;100.00;96243.25;5010964;28;24412;-75
2022/05/28 00:56:12;;;;;;;12.55;3.72;;;;;;;11.08;100.00;96238.34;5010917;28;24420;-75
2022/05/28 00:58:39;;;;;;;7.47;3.30;;;;;;;11.09;100.00;96248.66;5011636;28;24420;-75
2022/05/28 01:01:09;;;;;;;6.33;3.17;;;;;;;10.95;100.00;96250.34;5011501;28;24428;-75
2022/05/28 01:03:44;;;;;;;9.50;3.38;;;;;;;10.70;100.00;96246.53;5010855;28;25021;-75
2022/05/28 01:06:18;;;;;;;9.77;3.05;;;;;;;10.91;100.00;96247.09;5011387;28;24443;-75
2022/05/28 01:08:51;;;;;;;8.48;3.03;;;;;;;11.04;100.00;96244.63;5011349;28;24421;-75
2022/05/28 01:11:28;;;;;;;7.90;3.03;;;;;;;11.13;100.00;96254.50;5010679;28;24482;-75
2022/05/28 01:14:01;;;;;;;6.45;2.55;;;;;;;10.75;100.00;96249.69;5010830;28;24427;-76
2022/05/28 01:16:32;;;;;;;10.67;3.20;;;;;;;10.74;100.00;96247.19;5011020;28;24921;-75
2022/05/28 01:19:05;;;;;;;8.90;3.22;;;;;;;10.94;100.00;96256.44;5010860;28;24427;-75
2022/05/28 01:21:51;;;;;;;5.75;2.65;;;;;;;10.94;100.00;96257.31;5010582;28;24805;-75
2022/05/28 01:24:24;;;;;;;6.93;3.22;;;;;;;10.88;100.00;96258.47;5010663;28;24443;-75
2022/05/28 01:26:57;;;;;;;7.15;2.78;;;;;;;11.15;100.00;96252.63;5010798;28;24417;-76
2022/05/28 01:29:27;;;;;;;8.13;2.83;;;;;;;11.04;100.00;96252.41;5010723;28;24419;-76
2022/05/28 01:31:55;;;;;;;9.13;2.75;;;;;;;10.97;100.00;96249.31;5010642;28;24421;-75
2022/05/28 01:34:23;;;;;;;9.00;2.80;;;;;;;11.01;100.00;96247.41;5011107;28;24415;-75
2022/05/28 01:36:50;;;;;;;7.50;2.80;;;;;;;11.11;100.00;96243.38;5014652;28;24526;-75
2022/05/28 01:39:18;;;;;;;8.30;2.90;;;;;;;10.79;100.00;96235.69;5014838;28;24416;-75
2022/05/28 01:41:48;;;;;;;5.47;2.90;;;;;;;10.58;100.00;96242.03;5014710;28;24869;-75
2022/05/28 01:44:17;;;;;;;7.30;2.85;;;;;;;10.68;100.00;96240.63;5014268;28;24467;-77
2022/05/28 01:46:46;;;;;;;12.50;2.90;;;;;;;10.54;100.00;96240.53;5014420;28;24420;-75
2022/05/28 01:49:17;;;;;;;8.87;3.07;;;;;;;10.27;100.00;96242.88;5014640;28;24424;-76
2022/05/28 01:51:48;;;;;;;6.45;2.70;;;;;;;10.25;100.00;96235.19;5014332;28;24424;-76
2022/05/28 01:54:18;;;;;;;7.30;2.38;;;;;;;10.35;100.00;96244.13;5014217;28;24424;-75
2022/05/28 01:56:47;;;;;;;7.97;3.45;;;;;;;10.53;100.00;96238.84;5014137;28;24425;-76
2022/05/28 01:59:17;;;;;;;8.82;2.47;;;;;;;10.22;100.00;96237.09;5014082;28;24419;-76
2022/05/28 02:01:44;;;;;;;6.75;3.08;;;;;;;10.45;100.00;96241.03;5014734;28;20808;-75
2022/05/28 02:04:10;;;;;;;8.15;3.10;;;;;;;10.23;100.00;96243.91;5014192;28;24608;-75
2022/05/28 02:06:39;;;;;;;7.93;2.88;;;;;;;10.04;100.00;96242.31;5014201;28;24814;-75
2022/05/28 02:09:09;;;;;;;8.48;3.08;;;;;;;10.03;100.00;96238.06;5014043;28;24417;-75
2022/05/28 02:11:47;;;;;;;6.45;2.95;;;;;;;10.15;100.00;96246.91;5013948;28;24432;-76
2022/05/28 02:14:21;;;;;;;8.63;3.30;;;;;;;10.27;100.00;96240.28;5014045;28;24483;-75
2022/05/28 02:16:53;;;;;;;4.45;2.25;;;;;;;10.29;100.00;96241.03;5014045;28;24427;-75
2022/05/28 02:19:27;;;;;;;13.00;3.40;;;;;;;10.28;100.00;96239.38;5014123;28;20684;-75
2022/05/28 02:22:02;;;;;;;8.55;3.17;;;;;;;10.11;100.00;96233.31;5014336;28;20658;-75
2022/05/28 02:24:35;;;;;;;6.15;2.83;;;;;;;10.01;100.00;96233.88;5013922;28;21102;-75
2022/05/28 02:27:05;;;;;;;10.68;3.05;;;;;;;9.90;100.00;96237.88;5014011;28;20686;-75
2022/05/28 02:29:34;;;;;;;9.43;3.05;;;;;;;9.88;100.00;96234.53;5013833;28;24845;-76
2022/05/28 02:32:01;;;;;;;8.23;3.10;;;;;;;9.85;100.00;96239.88;5014063;28;24429;-76
2022/05/28 02:34:27;;;;;;;10.02;3.35;;;;;;;9.86;100.00;96241.56;5013328;28;24412;-75
2022/05/28 02:36:53;;;;;;;7.95;2.97;;;;;;;9.90;100.00;96230.13;5013567;28;24455;-75
2022/05/28 02:39:20;;;;;;;8.50;3.38;;;;;;;9.82;100.00;96232.25;5013879;28;24512;-75
2022/05/28 02:41:46;;;;;;;12.07;3.17;;;;;;;10.19;100.00;96230.31;5013447;28;24841;-75
2022/05/28 02:44:13;;;;;;;8.75;3.25;;;;;;;9.90;100.00;96224.94;5013754;28;24428;-75
2022/05/28 02:46:41;;;;;;;6.17;3.00;;;;;;;9.59;100.00;96232.63;5013619;28;24557;-75
2022/05/28 02:49:07;;;;;;;6.00;2.78;;;;;;;9.45;100.00;96226.44;5013759;28;20800;-75
2022/05/28 02:51:34;;;;;;;6.40;2.70;;;;;;;9.44;100.00;96226.50;5013409;28;20873;-75
2022/05/28 02:54:01;;;;;;;9.10;3.17;;;;;;;9.44;100.00;96224.72;5013463;28;20751;-75
2022/05/28 02:56:27;;;;;;;11.10;3.30;;;;;;;9.66;100.00;96226.22;5013365;28;20766;-75
2022/05/28 02:58:53;;;;;;;5.35;3.03;;;;;;;9.73;100.00;96216.41;5013167;28;24490;-75
2022/05/28 03:01:25;;;;;;;8.05;2.83;;;;;;;9.56;100.00;96222.44;5013096;28;24428;-75
2022/05/28 03:03:53;;;;;;;8.40;2.60;;;;;;;9.42;100.00;96220.56;5012875;28;20711;-75
2022/05/28 03:06:20;;;;;;;7.45;2.45;;;;;;;9.34;100.00;96222.69;5013288;28;20862;-75
2022/05/28 03:08:47;;;;;;;5.38;2.47;;;;;;;9.29;100.00;96220.34;5012943;28;24467;-75
2022/05/28 03:11:13;;;;;;;5.68;2.50;;;;;;;9.41;100.00;96224.88;5012833;28;24628;-75
2022/05/28 03:13:40;;;;;;;14.15;3.42;;;;;;;9.23;100.00;96228.41;5012721;28;24423;-75
2022/05/28 03:16:07;;;;;;;5.50;2.70;;;;;;;9.17;100.00;96236.47;5012562;28;21102;-75
2022/05/28 03:18:34;;;;;;;8.15;2.60;;;;;;;9.04;100.00;96232.81;5012430;28;21254;-75
2022/05/28 03:21:02;;;;;;;6.65;2.47;;;;;;;8.77;100.00;96227.25;5012272;28;24428;-75
2022/05/28 03:23:28;;;;;;;5.32;2.78;;;;;;;9.01;100.00;96225.22;5012035;28;21134;-75
2022/05/28 03:25:55;;;;;;;4.65;2.40;;;;;;;9.21;100.00;96225.91;5011483;28;21095;-75
2022/05/28 03:28:21;;;;;;;8.25;2.75;;;;;;;8.96;100.00;96234.03;5011300;28;20832;-75
2022/05/28 03:30:48;;;;;;;3.22;2.17;;;;;;;8.88;100.00;96228.41;5012501;28;20770;-75
2022/05/28 03:33:14;;;;;;;4.80;2.53;;;;;;;8.78;100.00;96228.91;5012677;28;24439;-75
2022/05/28 03:35:41;;;;;;;4.78;2.13;;;;;;;8.77;100.00;96228.09;5012295;28;24416;-75
2022/05/28 03:38:09;;;;;;;5.60;2.38;;;;;;;8.53;100.00;96239.56;5012511;28;24441;-75
2022/05/28 03:40:35;;;;;;;6.32;2.35;;;;;;;8.50;100.00;96244.91;5012557;28;21095;-75
2022/05/28 03:43:01;;;;;;;5.40;1.88;;;;;;;8.70;100.00;96243.03;5012458;28;20767;-75
2022/05/28 03:45:28;;;;;;;3.88;2.10;;;;;;;8.71;100.00;96246.44;5011725;28;24428;-75
2022/05/28 03:47:55;;;;;;;5.45;1.88;;;;;;;8.84;100.00;96238.97;5012442;28;24420;-75
2022/05/28 03:50:22;;;;;;;8.95;2.13;;;;;;;8.72;100.00;96246.41;5012192;28;20762;-75
2022/05/28 03:52:48;;;;;;;3.95;1.90;;;;;;;8.79;100.00;96246.06;5012860;28;24778;-75
2022/05/28 03:55:16;;;;;;;6.15;2.40;;;;;;;8.86;100.00;96250.03;5011980;28;24443;-75
2022/05/28 03:57:45;;;;;;;8.93;2.95;;;;;;;8.41;100.00;96246.97;5011458;28;20786;-75
2022/05/28 04:00:12;;;;;;;7.88;2.92;;;;;;;8.07;100.00;96244.25;5012518;28;20828;-75
2022/05/28 04:02:39;;;;;;;8.63;3.40;;;;;;;8.10;100.00;96252.69;5012425;28;20804;-75
2022/05/28 04:05:06;;;;;;;7.55;2.85;;;;;;;8.08;100.00;96245.91;5011978;28;24818;-75
2022/05/28 04:07:32;;;;;;;6.37;3.10;;;;;;;8.21;100.00;96250.47;5012116;28;20754;-76
2022/05/28 04:09:59;;;;;;;6.60;3.00;;;;;;;8.25;100.00;96257.16;5011989;28;20774;-75
2022/05/28 04:12:26;;;;;;;6.82;3.13;;;;;;;8.19;100.00;96260.03;5011813;28;20770;-75
2022/05/28 04:14:53;;;;;;;10.30;3.22;;;;;;;8.34;100.00;96263.63;5011629;28;20770;-75
2022/05/28 04:17:19;;;;;;;8.15;2.80;;;;;;;8.54;100.00;96257.59;5011951;28;24470;-75
2022/05/28 04:19:46;;;;;;;6.45;3.10;;;;;;;8.56;100.00;96257.50;5011792;28;24479;-75
2022/05/28 04:22:12;;;;;;;5.68;3.00;;;;;;;8.69;100.00;96256.03;5011666;28;20766;-76
2022/05/28 04:24:39;;;;;;;6.20;3.17;;;;;;;8.85;100.00;96264.72;5011386;28;21136;-75
2022/05/28 04:27:06;;;;;;;14.77;3.60;;;;;;;8.76;100.00;96269.50;5011401;28;24419;-75
2022/05/28 04:29:33;;;;;;;6.03;3.25;;;;;;;8.69;100.00;96268.94;5011481;28;24969;-75
2022/05/28 04:32:00;;;;;;;4.78;2.83;;;;;;;8.87;100.00;96265.47;5011663;28;20768;-76
2022/05/28 04:34:27;;;;;;;5.68;3.15;;;;;;;8.66;100.00;96267.34;5011076;28;24420;-75
2022/05/28 04:36:53;;;;;;;9.05;2.58;;;;;;;8.58;100.00;96269.44;5011400;28;24423;-75
2022/05/28 04:39:20;;;;;;;8.07;2.63;;;;;;;8.41;100.00;96267.63;5011216;28;25035;-75
2022/05/28 04:41:46;;;;;;;7.93;3.00;;;;;;;8.39;100.00;96266.88;5011609;28;24431;-75
2022/05/28 04:44:12;;;;;;;6.35;2.80;;;;;;;8.35;100.00;96272.22;5011262;28;24424;-75
2022/05/28 04:46:40;;;;;;;7.68;2.85;;;;;;;8.55;100.00;96274.75;5011392;28;20767;-75
2022/05/28 04:49:07;;;;;;;7.22;2.50;;;;;;;8.67;100.00;96271.56;5011271;28;24425;-75
2022/05/28 04:51:33;;;;;;;7.20;2.87;;;;;;;8.44;100.00;96277.00;5010978;28;24561;-75
2022/05/28 04:54:00;;;;;;;6.07;2.70;;;;;;;8.40;100.00;96267.72;5010968;28;24431;-75
2022/05/28 04:56:27;;;;;;;6.57;2.47;;;;;;;8.46;100.00;96272.59;5010993;28;20870;-75
2022/05/28 04:58:54;;;;;;;8.88;2.70;;;;;;;8.31;100.00;96274.13;5011108;28;24436;-75
2022/05/28 05:01:22;;;;;;;6.32;2.53;;;;;;;8.25;100.00;96274.38;5011015;28;21308;-75
2022/05/28 05:03:50;;;;;;;10.82;2.55;;;;;;;8.38;100.00;96280.69;5010918;28;20757;-75
2022/05/28 05:06:17;;;;;;;8.38;2.50;;;;;;;8.57;100.00;96275.53;5010989;28;20766;-75
2022/05/28 05:08:43;;;;;;;5.73;2.40;;;;;;;8.73;100.00;96275.63;5010139;28;24953;-75
2022/05/28 05:11:10;;;;;;;5.72;2.25;;;;;;;8.60;100.00;96279.69;5010947;28;24779;-75
2022/05/28 05:13:36;;;;;;;6.03;2.30;;;;;;;8.79;100.00;96279.66;5010967;28;24434;-75
2022/05/28 05:16:08;;;;;;;8.20;2.63;;;;;;;9.05;100.00;96288.72;5010819;28;24447;-75
2022/05/28 05:18:34;;;;;;;11.65;2.90;;;;;;;9.35;100.00;96271.75;5010784;28;24539;-75
2022/05/28 05:21:02;;;;;;;12.23;2.92;;;;;;;9.07;100.00;96282.59;5010534;28;24829;-75
2022/05/28 05:23:28;;;;;;;8.07;2.38;;;;;;;9.20;100.00;96283.69;5010684;28;21304;-75
2022/05/28 05:25:55;;;;;;;8.38;2.30;;;;;;;9.40;100.00;96284.44;5010585;28;24437;-75
2022/05/28 05:28:21;;;;;;;7.45;2.30;;;;;;;9.30;100.00;96288.38;5010874;28;24420;-75
2022/05/28 05:30:49;;;;;;;6.47;2.70;;;;;;;9.16;100.00;96296.84;5010734;28;24416;-75
2022/05/28 05:33:15;;;;;;;12.07;3.30;;;;;;;8.82;100.00;96295.84;5010584;28;24428;-75
2022/05/28 05:35:41;;;;;;;7.80;2.13;;;;;;;8.97;100.00;96289.09;5010335;28;24416;-75
2022/05/28 05:38:10;;;;;;;8.77;2.73;;;;;;;9.03;100.00;96295.75;5010392;28;24515;-75
2022/05/28 05:40:38;;;;;;;5.80;2.42;;;;;;;9.13;100.00;96299.56;5010715;28;24794;-75
2022/05/28 05:43:05;;;;;;;12.35;2.58;;;;;;;9.16;100.00;96302.84;5010713;28;24853;-75
2022/05/28 05:45:31;;;;;;;6.63;2.40;;;;;;;9.43;100.00;96308.38;5010326;28;20770;-76
2022/05/28 05:47:58;;;;;;;9.95;2.40;;;;;;;9.68;100.00;96314.94;5010521;28;24420;-75
2022/05/28 05:50:24;;;;;;;7.68;2.45;;;;;;;9.82;100.00;96307.28;5010254;28;24451;-75
2022/05/28 05:52:51;;;;;;;8.32;2.53;;;;;;;9.48;100.00;96313.31;5010694;28;24428;-75
2022/05/28 05:55:18;;;;;;;5.63;2.17;;;;;;;9.35;100.00;96302.75;5010303;28;24424;-76
2022/05/28 05:57:45;;;;;;;11.38;2.85;;;;;;;9.16;100.00;96302.00;5010508;28;24413;-75
2022/05/28 06:00:12;;;;;;;8.38;2.42;;;;;;;9.05;100.00;96293.91;5010249;28;24448;-75
2022/05/28 06:02:39;;;;;;;10.40;2.50;;;;;;;9.13;100.00;96289.22;5010311;28;24945;-75
2022/05/28 06:05:06;;;;;;;6.05;2.40;;;;;;;9.03;100.00;96295.75;5009900;28;25023;-75
2022/05/28 06:07:33;;;;;;;9.88;2.33;;;;;;;9.35;100.00;96300.19;5010528;28;24447;-75
2022/05/28 06:09:59;;;;;;;12.05;2.40;;;;;;;9.28;100.00;96292.81;5010304;28;20762;-75
2022/05/28 06:12:27;;;;;;;6.07;2.30;;;;;;;9.37;100.00;96295.75;5010382;28;24478;-75
2022/05/28 06:14:53;;;;;;;9.85;3.08;;;;;;;9.29;100.00;96297.88;5010187;28;20762;-75
2022/05/28 06:17:20;;;;;;;9.15;2.22;;;;;;;9.35;100.00;96307.94;5010232;28;24436;-75
2022/05/28 06:19:46;;;;;;;9.20;2.67;;;;;;;9.38;100.00;96299.16;5010023;28;24865;-75
2022/05/28 06:22:12;;;;;;;5.30;2.20;;;;;;;9.81;100.00;96303.03;5013826;28;24435;-75
2022/05/28 06:24:39;;;;;;;7.17;2.20;;;;;;;10.11;99.63;96294.59;5013864;28;24416;-75
2022/05/28 06:27:06;;;;;;;5.97;2.28;;;;;;;9.96;98.73;96297.97;5013915;28;24782;-75
2022/05/28 06:29:34;;;;;;;10.82;2.33;;;;;;;10.08;97.61;96299.91;5013677;28;24419;-75
2022/05/28 06:32:00;;;;;;;5.80;2.10;;;;;;;9.87;96.63;96307.91;5013778;28;24483;-75
2022/05/28 06:34:26;;;;;;;6.97;2.22;;;;;;;10.07;97.66;96303.44;5013728;28;24427;-75
2022/05/28 06:36:53;;;;;;;5.85;1.85;;;;;;;10.28;97.66;96310.09;5013712;28;24424;-75
2022/05/28 06:39:20;;;;;;;7.57;1.77;;;;;;;10.64;92.22;96307.31;5013621;28;24533;-75
2022/05/28 06:41:46;;;;;;;6.70;1.92;;;;;;;10.79;88.64;96307.38;5013561;28;24425;-76
2022/05/28 06:44:13;;;;;;;8.35;2.42;;;;;;;10.54;92.49;96303.53;5013270;28;24424;-75
2022/05/28 06:46:40;;;;;;;9.20;2.03;;;;;;;10.58;91.80;96299.03;5013094;28;24448;-75
2022/05/28 06:49:07;;;;;;;16.35;2.17;;;;;;;10.35;92.30;96300.28;5013498;28;24494;-76
2022/05/28 06:51:34;;;;;;;9.73;2.23;;;;;;;10.37;91.31;96306.19;5013240;28;25077;-75
2022/05/28 06:54:00;;;;;;;7.68;2.20;;;;;;;10.50;93.62;96307.22;5013215;28;24795;-75
2022/05/28 06:56:27;;;;;;;6.80;1.95;;;;;;;10.87;89.58;96312.97;5013577;28;24416;-75
2022/05/28 06:58:53;;;;;;;3.90;1.70;;;;;;;10.98;94.25;96314.97;5013151;28;24498;-76
2022/05/28 07:01:19;;;;;;;5.65;2.40;;;;;;;11.06;94.79;96307.59;5012895;28;24432;-75
2022/05/28 07:03:47;;;;;;;4.85;2.00;;;;;;;11.48;87.07;96311.25;5013076;28;24806;-75
2022/05/28 07:06:14;;;;;;;9.43;2.20;;;;;;;11.98;86.68;96310.09;5013202;28;24431;-75
2022/05/28 07:08:41;;;;;;;5.68;1.90;;;;;;;12.06;86.59;96305.28;5013083;28;24412;-75
2022/05/28 07:11:07;;;;;;;4.95;2.08;;;;;;;11.46;87.54;96310.50;5012893;28;24428;-75
2022/05/28 07:13:36;;;;;;;5.82;2.30;;;;;;;11.74;77.78;96309.75;5012987;28;24428;-75
2022/05/28 07:16:03;;;;;;;5.93;2.20;;;;;;;11.56;82.15;96303.88;5012591;28;24423;-75
2022/05/28 07:18:30;;;;;;;5.60;1.70;;;;;;;11.86;79.94;96306.44;5012953;28;24412;-75
2022/05/28 07:20:58;;;;;;;5.75;1.80;;;;;;;12.25;78.48;96302.41;5012804;28;24495;-75
2022/05/28 07:23:27;;;;;;;5.65;1.80;;;;;;;12.44;75.40;96295.16;5012685;28;24769;-75
2022/05/28 07:26:02;;;;;;;6.03;2.00;;;;;;;12.54;74.47;96303.22;5012493;28;24911;-75
2022/05/28 07:28:31;;;;;;;5.65;1.98;;;;;;;12.01;78.30;96305.53;5012411;28;24950;-75
2022/05/28 07:30:59;;;;;;;5.18;1.73;;;;;;;12.08;76.75;96300.81;5012411;28;24870;-75
2022/05/28 07:33:26;;;;;;;3.80;1.40;;;;;;;12.54;69.59;96304.03;5011613;28;24439;-75
2022/05/28 07:35:54;;;;;;;6.27;1.73;;;;;;;12.68;72.66;96300.59;5012439;28;24912;-75
2022/05/28 07:38:22;;;;;;;10.00;2.08;;;;;;;12.38;75.83;96300.72;5012373;28;24474;-75
2022/05/28 07:40:49;;;;;;;5.03;1.90;;;;;;;12.23;74.43;96299.88;5012245;28;24420;-75
2022/05/28 07:43:16;;;;;;;3.70;1.55;;;;;;;12.65;82.25;96295.59;5012467;28;24516;-75
2022/05/28 07:45:44;;;;;;;5.35;1.75;;;;;;;12.70;74.07;96295.28;5012042;28;24845;-75
2022/05/28 07:48:12;;;;;;;7.70;1.92;;;;;;;12.56;71.44;96291.78;5012390;28;24419;-75
2022/05/28 07:50:39;;;;;;;6.70;1.92;;;;;;;13.36;74.27;96294.53;5011977;28;24432;-75
2022/05/28 07:53:07;;;;;;;5.50;1.50;;;;;;;13.16;65.45;96290.56;5012334;28;24417;-75
2022/05/28 07:55:35;;;;;;;5.20;1.60;;;;;;;13.43;64.44;96285.38;5011695;28;24428;-75
2022/05/28 07:58:06;;;;;;;4.85;1.52;;;;;;;12.22;65.54;96287.84;5012253;28;24474;-75
2022/05/28 08:00:32;;;;;;;3.63;1.45;;;;;;;13.02;65.53;96275.88;5012054;28;24814;-75
2022/05/28 08:02:59;;;;;;;3.38;1.65;;;;;;;13.39;64.70;96275.28;5012489;28;24814;-75
2022/05/28 08:05:26;;;;;;;7.85;2.00;;;;;;;13.85;61.47;96270.44;5011608;28;24961;-75
2022/05/28 08:07:53;;;;;;;5.38;1.73;;;;;;;13.91;60.18;96267.41;5011856;28;24433;-75
2022/05/28 08:10:19;;;;;;;4.95;1.63;;;;;;;13.15;63.82;96265.50;5011689;28;25016;-75
2022/05/28 08:12:47;;;;;;;5.00;1.50;;;;;;;12.68;64.82;96266.81;5012068;28;24432;-75
2022/05/28 08:15:13;;;;;;;5.40;1.77;;;;;;;12.52;63.96;96272.13;5011582;28;24427;-75
2022/05/28 08:17:40;;;;;;;4.93;1.77;;;;;;;12.67;65.33;96272.09;5011816;28;24837;-75
2022/05/28 08:20:08;;;;;;;5.80;1.58;;;;;;;12.95;64.80;96268.59;5011561;28;24452;-75
2022/05/28 08:25:18;;;;;;;3.25;1.38;;;;;;;12.80;65.06;96262.59;5011391;28;24416;-75
2022/05/28 08:27:46;;;;;;;3.88;1.65;;;;;;;13.67;65.23;96277.72;5011632;28;24543;-75
2022/05/28 08:30:13;;;;;;;5.22;1.50;;;;;;;14.18;67.02;96272.50;5011505;28;24416;-75
2022/05/28 08:32:40;;;;;;;3.58;1.40;;;;;;;14.27;59.48;96268.41;5011422;28;24460;-75
2022/05/28 08:35:07;;;;;;;4.90;1.73;;;;;;;14.84;60.75;96270.50;5010931;28;24486;-75
2022/05/28 08:37:33;;;;;;;4.60;1.50;;;;;;;14.45;61.05;96271.50;5011621;28;24424;-75
2022/05/28 08:40:00;;;;;;;5.93;1.60;;;;;;;14.33;64.95;96268.00;5011397;28;24440;-75
2022/05/28 08:42:28;;;;;;;4.32;1.50;;;;;;;14.73;61.07;96268.66;5011333;28;24427;-75
2022/05/28 08:44:57;;;;;;;4.65;1.65;;;;;;;14.39;58.08;96267.59;5010786;28;24798;-75
2022/05/28 08:47:28;;;;;;;4.65;1.25;;;;;;;14.69;64.59;96269.81;5011139;28;24416;-75
2022/05/28 08:49:55;;;;;;;5.82;1.67;;;;;;;14.82;60.59;96259.34;5011370;28;24794;-76
2022/05/28 08:52:26;;;;;;;6.07;1.52;;;;;;;15.15;58.54;96260.44;5011004;28;24421;-75
2022/05/28 08:54:58;;;;;;;6.38;1.45;;;;;;;15.35;54.05;96265.06;5011011;28;24423;-75
2022/05/28 08:57:35;;;;;;;3.85;1.58;;;;;;;15.64;57.23;96248.97;5010963;28;24901;-75
2022/05/28 09:00:08;;;;;;;5.00;1.75;;;;;;;15.81;61.39;96251.19;5010815;28;24452;-75
2022/05/28 09:02:39;;;;;;;2.72;1.42;;;;;;;15.66;62.73;96245.34;5010940;28;24456;-75
2022/05/28 09:05:12;;;;;;;5.32;1.63;;;;;;;15.63;56.59;96242.91;5011073;28;24419;-75
2022/05/28 09:07:39;;;;;;;5.32;1.60;;;;;;;15.87;64.92;96240.28;5011003;28;24503;-75
2022/05/28 09:10:06;;;;;;;8.00;1.50;;;;;;;16.12;56.23;96238.38;5010776;28;25007;-75
2022/05/28 09:12:40;;;;;;;4.32;1.60;;;;;;;15.48;57.93;96236.25;5010751;28;24416;-75
2022/05/28 09:15:10;;;;;;;3.87;1.50;;;;;;;15.38;55.74;96243.91;5010727;28;24425;-75
2022/05/28 09:17:39;;;;;;;7.43;1.90;;;;;;;14.35;55.76;96242.69;5011016;28;24424;-75
2022/05/28 09:20:10;;;;;;;3.80;1.30;;;;;;;14.67;59.73;96240.41;5010755;28;24481;-75
2022/05/28 09:22:36;;;;;;;3.28;1.50;;;;;;;14.45;56.89;96254.09;5010697;28;24475;-75
2022/05/28 09:25:04;;;;;;;3.78;1.60;;;;;;;13.68;56.12;96244.69;5010373;28;24435;-75
2022/05/28 09:27:35;;;;;;;3.90;1.42;;;;;;;14.03;57.21;96235.31;5010974;28;24482;-75
2022/05/28 09:30:09;;;;;;;3.43;1.30;;;;;;;13.72;57.39;96238.34;5010660;28;24431;-75
2022/05/28 09:32:54;;;;;;;5.60;1.80;;;;;;;13.38;59.24;96238.00;5010862;28;24416;-75
2022/05/28 09:35:27;;;;;;;6.28;1.75;;;;;;;13.55;59.11;96236.91;5010285;28;24992;-75
2022/05/28 09:38:02;;;;;;;4.17;1.53;;;;;;;14.46;60.65;96234.06;5010859;28;24470;-75
2022/05/28 09:40:38;;;;;;;4.80;1.50;;;;;;;14.58;54.72;96233.25;5010630;28;24452;-75
2022/05/28 09:43:28;;;;;;;4.53;1.45;;;;;;;14.35;55.61;96224.44;5010684;28;24424;-75
2022/05/28 09:46:08;;;;;;;4.50;1.23;;;;;;;13.82;55.91;96221.16;5010080;28;24424;-75
2022/05/28 09:48:34;;;;;;;4.17;1.30;;;;;;;13.82;56.63;96228.97;5010707;28;24814;-75
2022/05/28 09:51:02;;;;;;;2.30;1.23;;;;;;;13.56;57.80;96217.75;5010792;28;24518;-75
2022/05/28 09:56:24;;;;;;;5.17;1.43;;;;;;;14.67;57.04;96223.94;5012743;28;24432;-75
2022/05/28 09:58:51;;;;;;;3.95;1.70;;;;;;;14.44;55.75;96220.34;5014417;28;24790;-75
2022/05/28 10:01:24;;;;;;;7.70;2.03;;;;;;;13.54;57.58;96219.63;5014108;28;24538;-75
2022/05/28 10:06:46;;;;;;;3.53;1.42;;;;;;;14.59;57.81;96214.06;5014703;28;24787;-75
2022/05/28 10:09:15;;;;;;;5.95;1.67;;;;;;;14.67;55.73;96208.28;5014378;28;24459;-75
2022/05/28 10:11:50;;;;;;;4.35;1.65;;;;;;;14.33;58.47;96208.06;5014143;28;24470;-75
2022/05/28 10:14:17;;;;;;;4.30;1.77;;;;;;;14.08;58.31;96208.13;5013934;28;24432;-75
2022/05/28 10:16:46;;;;;;;6.63;1.50;;;;;;;13.84;55.97;96198.47;5014011;28;24432;-75
2022/05/28 10:19:19;;;;;;;3.45;1.50;;;;;;;14.22;56.27;96208.81;5013763;28;24502;-75
2022/05/28 10:21:51;;;;;;;5.60;1.92;;;;;;;14.33;53.38;96210.69;5013905;28;24424;-75
2022/05/28 10:24:21;;;;;;;3.75;1.38;;;;;;;14.63;54.67;96201.66;5014011;28;24420;-75
2022/05/28 10:26:52;;;;;;;5.40;1.65;;;;;;;14.87;60.22;96207.69;5013825;28;24432;-75
2022/05/28 10:29:21;;;;;;;4.00;1.58;;;;;;;14.45;52.65;96201.97;5013896;28;24810;-75
2022/05/28 10:31:50;;;;;;;3.60;2.40;;;;;;;15.15;52.62;96200.44;5013529;28;24888;-75
2022/05/28 10:34:32;;;;;;;4.43;1.70;;;;;;;15.57;51.92;96191.16;5013559;28;24428;-75
2022/05/28 10:37:11;;;;;;;4.50;1.60;;;;;;;14.87;50.17;96191.19;5013797;28;24439;-75
2022/05/28 10:39:38;;;;;;;4.23;1.50;;;;;;;14.47;53.04;96192.28;5013451;28;24512;-75
2022/05/28 10:42:06;;;;;;;6.72;1.60;;;;;;;14.28;52.18;96197.16;5013231;28;24830;-75
2022/05/28 10:44:34;;;;;;;3.65;1.52;;;;;;;14.34;54.54;96194.09;5012059;28;25015;-75
2022/05/28 10:47:18;;;;;;;3.25;1.33;;;;;;;14.54;55.64;96195.31;5013600;28;24507;-75
2022/05/28 10:49:54;;;;;;;3.50;1.50;;;;;;;14.27;53.54;96196.28;5013573;28;24479;-75
2022/05/28 10:52:29;;;;;;;6.72;1.38;;;;;;;14.67;54.45;96190.88;5013228;28;24985;-75
2022/05/28 10:55:04;;;;;;;4.38;1.30;;;;;;;14.22;54.13;96197.56;5013316;28;24491;-75
2022/05/28 10:58:00;;;;;;;4.00;1.40;;;;;;;14.08;53.23;96193.31;5014836;28;24511;-75
2022/05/28 11:00:33;;;;;;;6.72;1.70;;;;;;;14.19;56.07;96188.19;5013315;28;24455;-75
2022/05/28 11:03:23;;;;;;;4.40;1.58;;;;;;;14.27;56.93;96188.47;5012986;28;24417;-75
2022/05/28 11:06:07;;;;;;;6.60;1.60;;;;;;;14.15;56.61;96178.94;5012982;28;24421;-75
2022/05/28 11:08:42;;;;;;;4.28;1.52;;;;;;;14.59;56.11;96177.56;5012133;28;24478;-75
2022/05/28 11:11:26;;;;;;;5.70;1.90;;;;;;;14.46;57.80;96175.00;5012835;28;24973;-75
2022/05/28 11:14:17;;;;;;;4.07;1.70;;;;;;;14.85;52.17;96182.66;5012920;28;24424;-75
2022/05/28 11:16:58;;;;;;;5.22;1.70;;;;;;;15.22;53.99;96168.56;5012981;28;24474;-75
2022/05/28 11:19:38;;;;;;;11.05;1.67;;;;;;;15.80;50.77;96167.72;5012964;28;24419;-75
2022/05/28 11:22:19;;;;;;;3.65;1.50;;;;;;;15.77;51.84;96160.97;5012673;28;24424;-75
2022/05/28 11:24:53;;;;;;;7.32;1.58;;;;;;;16.00;51.75;96147.88;5012779;28;24432;-75
2022/05/28 11:27:36;;;;;;;3.42;1.45;;;;;;;15.95;51.94;96164.75;5012799;28;24516;-75
2022/05/28 11:30:07;;;;;;;3.58;1.60;;;;;;;15.75;51.61;96149.78;5012575;28;24478;-75
2022/05/28 11:32:40;;;;;;;6.13;1.75;;;;;;;15.31;50.57;96148.75;5012832;28;24439;-75
2022/05/28 11:35:16;;;;;;;4.97;1.60;;;;;;;15.25;53.22;96147.47;5012789;28;24445;-75
2022/05/28 11:37:46;;;;;;;6.68;1.60;;;;;;;15.68;55.78;96145.97;5013065;28;24435;-75
2022/05/28 11:40:18;;;;;;;3.35;1.48;;;;;;;15.64;48.70;96140.13;5012284;28;24857;-75
2022/05/28 11:42:50;;;;;;;3.88;1.40;;;;;;;15.42;48.50;96134.91;5012375;28;24536;-75
2022/05/28 11:45:21;;;;;;;6.00;1.37;;;;;;;15.95;53.73;96129.97;5012329;28;24425;-75
2022/05/28 11:47:53;;;;;;;3.75;1.50;;;;;;;15.31;49.83;96119.22;5012506;28;24420;-75
2022/05/28 11:53:24;;;;;;;4.10;1.55;;;;;;;15.77;47.94;96120.97;5012299;28;24474;-75